Yoann-jordan — FGE5099 — position and weather

sailwx.info

Track history (hours):
 
Tides and Currents Weather Stations Pressure Air Temp Water Temp Dewpoint Dewpoint Depression Visibility Wind Speed Wind Dir Waves Ship Positions

Yoann-jordan

Last reported at 2017-Nov-20 00:27 UTC. Time now 2017-Nov-24 07:41 UTC.
Position N 46°27' W 002°04'.

Length 11 m.

Type: Fishing. MMSI: 227648190.

Date/timePositionNaut miles runAvg speedWind from/ knotsBaromVisibWave heightAir tempDewpointWater temp
2017-Nov-20 00:27N 46°27' W 002°04'3 3.0
2017-Nov-19 23:32N 46°27' W 002°08'0 3.1
2017-Nov-19 23:29N 46°27' W 002°08'0 0.1
2017-Nov-19 18:56N 46°27' W 002°07'0 0.3
2017-Nov-19 17:39N 46°27' W 002°08'2 0.3
2017-Nov-19 13:00N 46°27' W 002°06'1 2.8
2017-Nov-19 12:30N 46°27' W 002°04'4 0.6
2017-Nov-19 05:50N 46°27' W 001°58'3 8.4
2017-Nov-19 05:30N 46°28' W 001°54'  
2017-Nov-16 20:46N 46°30' W 001°47'0 0.0
2017-Nov-16 20:28N 46°30' W 001°47'0 0.1
2017-Nov-16 19:58N 46°30' W 001°47'1 2.2
2017-Nov-16 19:30N 46°29' W 001°48'4 7.8
2017-Nov-16 19:00N 46°29' W 001°54'4 7.8
2017-Nov-16 18:30N 46°30' W 001°59'1 1.4
2017-Nov-16 18:00N 46°30' W 002°00'2 3.5
2017-Nov-16 17:30N 46°29' W 001°59'1 2.1
2017-Nov-16 17:00N 46°28' W 001°57'2 3.4
2017-Nov-16 16:30N 46°30' W 001°59'2 3.4
2017-Nov-16 16:00N 46°31' W 002°00'1 2.4
2017-Nov-16 15:28N 46°31' W 002°02'2 3.4
2017-Nov-16 15:00N 46°30' W 002°01'1 3.0
2017-Nov-16 14:30N 46°29' W 001°60'1 2.2
2017-Nov-16 14:00N 46°30' W 001°60'2 3.6
2017-Nov-16 13:29N 46°31' W 002°01'1 1.6
2017-Nov-16 12:59N 46°31' W 002°02'2 3.5
2017-Nov-16 12:30N 46°30' W 002°01'2 3.6
2017-Nov-16 12:00N 46°28' W 001°60'1 1.3
2017-Nov-16 11:30N 46°29' W 002°00'2 3.4
2017-Nov-16 11:00N 46°30' W 002°02'2 3.2
2017-Nov-16 10:30N 46°32' W 002°02'1 2.7
2017-Nov-16 10:00N 46°31' W 002°01'2 3.4
2017-Nov-16 09:30N 46°30' W 001°59'2 3.4
2017-Nov-16 09:00N 46°29' W 001°57'1 1.1
2017-Nov-16 08:28N 46°29' W 001°57'2 3.3
2017-Nov-16 08:00N 46°30' W 001°58'2 3.3
2017-Nov-16 07:30N 46°31' W 001°59'1 2.6
2017-Nov-16 07:00N 46°32' W 001°57'2 3.5
2017-Nov-16 06:31N 46°30' W 001°57'2 3.5
2017-Nov-16 06:00N 46°29' W 001°56'2 4.1
2017-Nov-16 05:30N 46°28' W 001°53'2 4.4
2017-Nov-16 05:00N 46°29' W 001°49'2 3.5
2017-Nov-16 04:30N 46°30' W 001°48'0 0.5
2017-Nov-16 04:00N 46°30' W 001°47'0 0.1
2017-Nov-16 03:28N 46°30' W 001°47'0 0.0
2017-Nov-16 02:58N 46°30' W 001°47'0 0.0
2017-Nov-16 02:28N 46°30' W 001°47'2 3.4
2017-Nov-16 01:59N 46°29' W 001°49'4 8.2
2017-Nov-16 01:30N 46°27' W 001°54'4 8.1
2017-Nov-16 01:00N 46°26' W 001°60'3 0.2
2017-Nov-15 05:17N 46°27' W 002°05'3 8.9
2017-Nov-15 05:00N 46°27' W 002°01'4 8.8
2017-Nov-15 04:30N 46°28' W 001°55'4 8.7
2017-Nov-15 04:00N 46°29' W 001°49'1 2.8
2017-Nov-15 03:29N 46°30' W 001°47'0 0.0
2017-Nov-15 02:59N 46°30' W 001°47'0 0.0
2017-Nov-15 02:29N 46°30' W 001°47'2 3.5
2017-Nov-15 02:00N 46°29' W 001°49'4 8.3
2017-Nov-15 01:30N 46°27' W 001°54'4 8.3
2017-Nov-15 01:00N 46°25' W 001°60'5 0.3
2017-Nov-14 08:45N 46°25' W 002°07'1 0.4
2017-Nov-14 05:18N 46°26' W 002°05'3 8.7
2017-Nov-14 05:00N 46°26' W 002°01'4 8.7
2017-Nov-14 04:30N 46°28' W 001°55'4 8.6
2017-Nov-14 04:00N 46°29' W 001°49'2 3.5
2017-Nov-14 03:31N 46°30' W 001°47'0 0.2
2017-Nov-14 03:01N 46°30' W 001°47'0 0.0
2017-Nov-14 02:31N 46°30' W 001°47'0 0.5
2017-Nov-14 02:01N 46°30' W 001°48'3 6.6
2017-Nov-14 01:30N 46°28' W 001°52'4 8.2
2017-Nov-14 01:00N 46°28' W 001°58'4 8.2
2017-Nov-14 00:30N 46°27' W 002°04'  
Track history (hours):
 
Tides and Currents Weather Stations Pressure Air Temp Water Temp Dewpoint Dewpoint Depression Visibility Wind Speed Wind Dir Waves Ship Positions

Yoann-jordan

Last reported at 2017-Nov-20 00:27 UTC. Time now 2017-Nov-24 07:41 UTC.
Position N 46°27' W 002°04'.

Length 11 m.

Type: Fishing. MMSI: 227648190.

Date/timePositionNaut miles runAvg speedWind from/ knotsBaromVisibWave heightAir tempDewpointWater temp
2017-Nov-20 00:27N 46°27' W 002°04'3 3.0
2017-Nov-19 23:32N 46°27' W 002°08'0 3.1
2017-Nov-19 23:29N 46°27' W 002°08'0 0.1
2017-Nov-19 18:56N 46°27' W 002°07'0 0.3
2017-Nov-19 17:39N 46°27' W 002°08'2 0.3
2017-Nov-19 13:00N 46°27' W 002°06'1 2.8
2017-Nov-19 12:30N 46°27' W 002°04'4 0.6
2017-Nov-19 05:50N 46°27' W 001°58'3 8.4
2017-Nov-19 05:30N 46°28' W 001°54'  
2017-Nov-16 20:46N 46°30' W 001°47'0 0.0
2017-Nov-16 20:28N 46°30' W 001°47'0 0.1
2017-Nov-16 19:58N 46°30' W 001°47'1 2.2
2017-Nov-16 19:30N 46°29' W 001°48'4 7.8
2017-Nov-16 19:00N 46°29' W 001°54'4 7.8
2017-Nov-16 18:30N 46°30' W 001°59'1 1.4
2017-Nov-16 18:00N 46°30' W 002°00'2 3.5
2017-Nov-16 17:30N 46°29' W 001°59'1 2.1
2017-Nov-16 17:00N 46°28' W 001°57'2 3.4
2017-Nov-16 16:30N 46°30' W 001°59'2 3.4
2017-Nov-16 16:00N 46°31' W 002°00'1 2.4
2017-Nov-16 15:28N 46°31' W 002°02'2 3.4
2017-Nov-16 15:00N 46°30' W 002°01'1 3.0
2017-Nov-16 14:30N 46°29' W 001°60'1 2.2
2017-Nov-16 14:00N 46°30' W 001°60'2 3.6
2017-Nov-16 13:29N 46°31' W 002°01'1 1.6
2017-Nov-16 12:59N 46°31' W 002°02'2 3.5
2017-Nov-16 12:30N 46°30' W 002°01'2 3.6
2017-Nov-16 12:00N 46°28' W 001°60'1 1.3
2017-Nov-16 11:30N 46°29' W 002°00'2 3.4
2017-Nov-16 11:00N 46°30' W 002°02'2 3.2
2017-Nov-16 10:30N 46°32' W 002°02'1 2.7
2017-Nov-16 10:00N 46°31' W 002°01'2 3.4
2017-Nov-16 09:30N 46°30' W 001°59'2 3.4
2017-Nov-16 09:00N 46°29' W 001°57'1 1.1
2017-Nov-16 08:28N 46°29' W 001°57'2 3.3
2017-Nov-16 08:00N 46°30' W 001°58'2 3.3
2017-Nov-16 07:30N 46°31' W 001°59'1 2.6
2017-Nov-16 07:00N 46°32' W 001°57'2 3.5
2017-Nov-16 06:31N 46°30' W 001°57'2 3.5
2017-Nov-16 06:00N 46°29' W 001°56'2 4.1
2017-Nov-16 05:30N 46°28' W 001°53'2 4.4
2017-Nov-16 05:00N 46°29' W 001°49'2 3.5
2017-Nov-16 04:30N 46°30' W 001°48'0 0.5
2017-Nov-16 04:00N 46°30' W 001°47'0 0.1
2017-Nov-16 03:28N 46°30' W 001°47'0 0.0
2017-Nov-16 02:58N 46°30' W 001°47'0 0.0
2017-Nov-16 02:28N 46°30' W 001°47'2 3.4
2017-Nov-16 01:59N 46°29' W 001°49'4 8.2
2017-Nov-16 01:30N 46°27' W 001°54'4 8.1
2017-Nov-16 01:00N 46°26' W 001°60'3 0.2
2017-Nov-15 05:17N 46°27' W 002°05'3 8.9
2017-Nov-15 05:00N 46°27' W 002°01'4 8.8
2017-Nov-15 04:30N 46°28' W 001°55'4 8.7
2017-Nov-15 04:00N 46°29' W 001°49'1 2.8
2017-Nov-15 03:29N 46°30' W 001°47'0 0.0
2017-Nov-15 02:59N 46°30' W 001°47'0 0.0
2017-Nov-15 02:29N 46°30' W 001°47'2 3.5
2017-Nov-15 02:00N 46°29' W 001°49'4 8.3
2017-Nov-15 01:30N 46°27' W 001°54'4 8.3
2017-Nov-15 01:00N 46°25' W 001°60'5 0.3
2017-Nov-14 08:45N 46°25' W 002°07'1 0.4
2017-Nov-14 05:18N 46°26' W 002°05'3 8.7
2017-Nov-14 05:00N 46°26' W 002°01'4 8.7
2017-Nov-14 04:30N 46°28' W 001°55'4 8.6
2017-Nov-14 04:00N 46°29' W 001°49'2 3.5
2017-Nov-14 03:31N 46°30' W 001°47'0 0.2
2017-Nov-14 03:01N 46°30' W 001°47'0 0.0
2017-Nov-14 02:31N 46°30' W 001°47'0 0.5
2017-Nov-14 02:01N 46°30' W 001°48'3 6.6
2017-Nov-14 01:30N 46°28' W 001°52'4 8.2
2017-Nov-14 01:00N 46°28' W 001°58'4 8.2
2017-Nov-14 00:30N 46°27' W 002°04'  

Dump ship's entire track history